createdAt,value
2022-10-14T00:04:16.515Z,99.99
2022-10-14T00:14:16.647Z,99.99
2022-10-14T00:24:16.924Z,99.99
2022-10-14T00:34:16.974Z,99.99
2022-10-14T00:44:17.143Z,99.99
2022-10-14T00:54:17.287Z,99.99
2022-10-14T01:04:17.478Z,99.99
2022-10-14T01:14:17.628Z,99.99
2022-10-14T01:24:18.046Z,99.99
2022-10-14T01:34:17.936Z,99.99
2022-10-14T01:44:18.120Z,99.99
2022-10-14T01:54:18.260Z,99.99
2022-10-14T02:04:18.452Z,99.99
2022-10-14T02:14:18.604Z,99.99
2022-10-14T02:24:18.789Z,99.99
2022-10-14T02:34:18.946Z,99.99
2022-10-14T02:44:19.161Z,99.99
2022-10-14T02:54:19.307Z,99.99
2022-10-14T03:04:19.501Z,99.99
2022-10-14T03:14:19.750Z,99.99
2022-10-14T03:24:19.825Z,99.99
2022-10-14T03:34:19.959Z,99.99
2022-10-14T03:44:20.143Z,99.99
2022-10-14T03:54:20.286Z,99.99
2022-10-14T04:04:20.475Z,99.99
2022-10-14T04:14:20.829Z,99.99
2022-10-14T04:24:20.788Z,99.99
2022-10-14T04:34:20.922Z,99.99
2022-10-14T04:44:21.098Z,99.99
2022-10-14T04:54:21.230Z,99.99
2022-10-14T05:04:21.424Z,99.99
2022-10-14T05:14:21.578Z,99.99
2022-10-14T05:24:21.795Z,99.99
2022-10-14T05:34:22.138Z,99.99
2022-10-14T05:44:22.213Z,99.99
2022-10-14T05:54:22.258Z,99.99
2022-10-14T06:04:22.454Z,99.99
2022-10-14T06:14:22.612Z,99.99
2022-10-14T06:24:22.876Z,99.99
2022-10-14T06:34:22.893Z,99.99
2022-10-14T06:44:23.078Z,99.27
2022-10-14T06:54:23.246Z,96.58
2022-10-14T07:04:23.434Z,95.47
2022-10-14T07:14:23.596Z,94.71
2022-10-14T07:24:23.795Z,93.30
2022-10-14T07:34:23.936Z,91.58
2022-10-14T07:44:27.248Z,92.80
2022-10-14T07:54:24.281Z,92.80
2022-10-14T08:04:24.452Z,91.80
2022-10-14T08:14:24.624Z,89.08
2022-10-14T08:24:24.831Z,85.80
2022-10-14T08:34:24.996Z,86.22
2022-10-14T08:44:25.649Z,84.93
2022-10-14T08:54:25.329Z,83.58
2022-10-14T09:04:25.617Z,86.22
2022-10-14T09:14:25.694Z,86.41
2022-10-14T09:24:25.880Z,86.19
2022-10-14T09:34:26.014Z,81.82
2022-10-14T09:44:26.319Z,81.68
2022-10-14T09:54:26.361Z,79.67
2022-10-14T10:04:26.542Z,78.02
2022-10-14T10:14:26.702Z,79.63
2022-10-14T10:24:30.173Z,77.38
2022-10-14T10:34:26.992Z,78.08
2022-10-14T10:44:27.217Z,78.02
2022-10-14T10:54:27.675Z,76.97
2022-10-14T11:04:27.567Z,78.05
2022-10-14T11:14:27.750Z,76.94
2022-10-14T11:24:27.981Z,79.63
2022-10-14T11:34:28.199Z,80.51
2022-10-14T11:44:28.321Z,80.15
2022-10-14T11:54:28.412Z,80.45
2022-10-14T12:04:28.625Z,82.81
2022-10-14T12:14:28.958Z,82.43
2022-10-14T12:24:28.914Z,81.01
2022-10-14T12:34:29.060Z,78.38
2022-10-14T12:44:29.508Z,76.63
2022-10-14T12:54:29.460Z,77.67
2022-10-14T13:04:29.761Z,78.85
2022-10-14T13:14:30.067Z,81.35
2022-10-14T13:24:30.321Z,80.88
2022-10-14T13:34:30.262Z,81.59
2022-10-14T13:44:30.350Z,81.95
2022-10-14T13:54:30.819Z,81.85
2022-10-14T14:04:30.825Z,83.36
2022-10-14T14:14:30.763Z,83.00
2022-10-14T14:24:30.961Z,83.88
2022-10-14T14:34:31.113Z,84.29
2022-10-14T14:44:31.613Z,84.43
2022-10-14T14:54:31.450Z,84.19
2022-10-14T15:04:31.872Z,84.45
2022-10-14T15:14:31.822Z,86.65
2022-10-14T15:24:32.026Z,87.10
2022-10-14T15:34:32.372Z,88.41
2022-10-14T15:44:32.343Z,89.36
2022-10-14T15:54:32.517Z,89.87
2022-10-14T16:04:32.729Z,90.11
2022-10-14T16:14:32.881Z,89.70
2022-10-14T16:24:33.169Z,91.12
2022-10-14T16:34:33.215Z,96.22
2022-10-14T16:44:33.766Z,98.99
2022-10-14T16:54:33.602Z,99.99
2022-10-14T17:04:33.936Z,99.99
2022-10-14T17:14:34.240Z,99.99
2022-10-14T17:24:34.105Z,99.99
2022-10-14T17:34:34.275Z,99.90
2022-10-14T17:44:34.506Z,99.99
2022-10-14T17:54:34.735Z,99.80
2022-10-14T18:04:35.087Z,98.28
2022-10-14T18:14:34.997Z,96.91
2022-10-14T18:24:35.219Z,93.73
2022-10-14T18:34:35.367Z,93.06
2022-10-14T18:44:35.577Z,90.83
2022-10-14T18:54:35.757Z,96.09
2022-10-14T19:04:35.974Z,98.77
2022-10-14T19:14:36.137Z,99.84
2022-10-14T19:24:36.310Z,99.99
2022-10-14T19:34:36.585Z,99.99
2022-10-14T19:44:36.802Z,99.99
2022-10-14T19:54:36.844Z,99.99
2022-10-14T20:04:37.054Z,99.99
2022-10-14T20:14:37.199Z,99.99
2022-10-14T20:24:37.395Z,99.99
2022-10-14T20:34:37.643Z,99.99
2022-10-14T20:54:37.909Z,99.99
2022-10-14T21:04:38.234Z,99.99
2022-10-14T21:14:38.455Z,99.99
2022-10-14T21:24:38.443Z,99.99
2022-10-14T21:34:38.625Z,99.99
2022-10-14T21:44:38.821Z,99.99
2022-10-14T21:54:38.975Z,99.99
2022-10-14T22:04:39.169Z,99.99
2022-10-14T22:14:39.303Z,99.99
2022-10-14T22:24:39.800Z,99.99
2022-10-14T22:34:39.624Z,99.99
2022-10-14T22:44:39.840Z,99.99
2022-10-14T22:54:40.010Z,99.99
2022-10-14T23:04:40.220Z,99.99
2022-10-14T23:14:40.378Z,99.99
2022-10-14T23:24:40.563Z,99.99
2022-10-14T23:34:40.734Z,99.99
2022-10-14T23:44:40.896Z,99.99
2022-10-14T23:54:41.040Z,99.99
